Latest Weather Observations for Norah Head

IDN60901

Issued at 10:41 pm EST Wednesday 12 August 2020 (issued every 10 minutes, with the page automatically refreshed every 10 minutes)

About weather observations | Map of Sydney area stations | Latest observations for Sydney area | Other Formats
Station Details ID: 061366 Name: NORAH HEAD AWS Lat: -33.28 Lon: 151.58 Height: 18.8 m
Data from the previous 72 hours. | See also: Recent months at Norah Head
Date/Time
EST
Temp
°C
App
Temp
°C
Dew
Point
°C
Rel
Hum
%
Delta-T
°C
Wind Press
QNH
hPa
Press
MSL
hPa
Rain since
9am
mm
Dir  Spd
km/h
Gust
km/h
Spd
kts
Gust
kts
12/10:30pm 13.0 12.3 12.1 94 0.5 NW 7 11 4 6 1013.1 1013.0 0.4
12/10:00pm 13.8 12.6 12.7 93 0.6 NNW 11 15 6 8 1012.9 1012.8 0.4
12/09:30pm 14.2 13.8 12.9 92 0.7 NE 7 11 4 6 1012.8 1012.7 0.4
12/09:00pm 14.6 13.2 13.3 92 0.7 S 13 19 7 10 1013.4 1013.3 0.4
12/08:30pm 14.0 13.1 12.6 91 0.8 ENE 9 15 5 8 1012.9 1012.8 0.4
12/08:00pm 14.4 14.0 12.3 87 1.1 NW 6 13 3 7 1013.9 1013.8 0.4
12/07:30pm 14.8 13.6 11.6 81 1.7 WNW 9 20 5 11 1014.1 1014.0 0.0
12/07:00pm 15.5 13.8 12.4 82 1.7 N 13 15 7 8 1012.8 1012.7 0.0
12/06:30pm 15.3 12.3 12.1 81 1.7 N 19 20 10 11 1012.5 1012.4 0.0
12/06:00pm 15.3 12.3 12.1 81 1.7 N 19 22 10 12 1012.2 1012.1 0.0
12/05:30pm 15.7 13.7 12.6 82 1.7 N 15 19 8 10 1012.2 1012.1 0.0
12/05:00pm 15.7 12.9 12.6 82 1.7 N 19 20 10 11 1012.1 1012.0 0.0
12/04:30pm 15.7 13.6 12.5 81 1.8 N 15 17 8 9 1012.1 1012.0 0.0
12/04:00pm 15.6 12.8 12.5 82 1.7 NNE 19 20 10 11 1012.1 1012.0 0.0
12/03:30pm 15.9 12.6 12.8 82 1.7 NNE 22 26 12 14 1012.1 1012.0 0.0
12/03:00pm 15.6 12.8 12.5 82 1.7 NE 19 22 10 12 1012.4 1012.3 0.0
12/02:30pm 15.6 12.2 12.4 81 1.8 NE 22 24 12 13 1012.6 1012.5 0.0
12/02:00pm 16.4 14.0 12.6 78 2.1 NNE 17 19 9 10 1012.9 1012.8 0.0
12/01:30pm 16.4 15.2 12.8 79 2.0 NNE 11 13 6 7 1013.2 1013.1 0.0
12/01:00pm 16.4 14.0 12.6 78 2.1 NNE 17 19 9 10 1013.6 1013.5 0.0
12/12:30pm 15.9 13.7 12.1 78 2.1 N 15 19 8 10 1014.1 1014.0 0.0
12/12:00pm 15.7 13.0 11.7 77 2.2 N 17 19 9 10 1014.8 1014.7 0.0
12/11:30am 15.4 13.4 11.6 78 2.0 N 13 15 7 8 1015.4 1015.3 0.0
12/11:00am 15.2 12.7 11.2 77 2.1 N 15 19 8 10 1015.8 1015.7 0.0
12/10:30am 15.1 12.2 11.1 77 2.1 N 17 19 9 10 1016.3 1016.2 0.0
12/10:00am 15.5 14.1 12.3 81 1.7 N 11 17 6 9 1016.7 1016.7 0.0
12/09:30am 13.6 12.7 11.3 86 1.2 NNW 7 9 4 5 1016.9 1016.9 0.0
12/09:00am 13.6 12.7 10.8 83 1.5 NNW 6 9 3 5 1017.2 1017.2 0.2
12/08:30am 13.6 11.9 11.1 85 1.3 NNW 11 13 6 7 1017.3 1017.3 0.2
12/08:00am 13.5 11.0 10.9 84 1.4 N 15 19 8 10 1017.3 1017.3 0.2
12/07:30am 13.6 10.3 11.0 84 1.4 N 19 22 10 12 1017.1 1017.1 0.2
12/07:00am 13.9 11.2 11.8 87 1.1 N 17 19 9 10 1016.8 1016.8 0.2
12/06:30am 13.5 10.9 11.9 90 0.9 N 17 19 9 10 1016.6 1016.6 0.2
12/06:00am 13.3 10.3 11.9 91 0.7 N 19 20 10 11 1016.6 1016.6 0.2
12/05:30am 13.2 10.6 12.1 93 0.6 N 17 20 9 11 1016.5 1016.5 0.2
12/05:00am 12.8 11.0 12.0 95 0.4 N 13 17 7 9 1016.7 1016.7 0.2
12/04:30am 12.1 10.9 11.6 97 0.3 N 9 17 5 9 1016.7 1016.7 0.2
12/04:00am 11.9 10.2 11.3 96 0.3 NNW 11 17 6 9 1016.9 1016.9 0.2
12/03:30am 11.9 10.6 11.3 96 0.3 NNW 9 13 5 7 1016.8 1016.8 0.2
12/03:00am 11.7 10.3 10.9 95 0.4 NNW 9 13 5 7 1016.8 1016.8 0.2
12/02:30am 11.5 10.0 10.4 93 0.6 NW 9 13 5 7 1017.2 1017.2 0.2
12/02:00am 11.9 10.8 10.5 91 0.7 N 7 9 4 5 1017.3 1017.3 0.2
12/01:30am 12.3 11.3 10.4 88 1.0 NNW 6 7 3 4 1018.0 1018.0 0.2
12/01:00am 12.6 11.1 10.5 87 1.1 NW 9 11 5 6 1018.2 1018.2 0.2
12/12:30am 12.6 10.8 10.7 88 1.0 WNW 11 15 6 8 1018.4 1018.4 0.2
12/12:00am 12.1 10.2 10.5 90 0.8 WNW 11 15 6 8 1018.4 1018.4 0.2
 
Date/Time
EST
Temp
°C
App
Temp
°C
Dew
Point
°C
Rel
Hum
%
Delta-T
°C
Wind Press
QNH
hPa
Press
MSL
hPa
Rain since
9am
mm
Dir  Spd
km/h
Gust
km/h
Spd
kts
Gust
kts
11/11:30pm 12.1 10.7 10.8 92 0.7 WNW 9 11 5 6 1018.3 1018.3 0.2
11/11:00pm 12.3 11.4 11.2 93 0.6 NW 7 7 4 4 1018.2 1018.2 0.2
11/10:30pm 12.0 11.0 10.4 90 0.8 NNW 6 6 3 3 1018.2 1018.2 0.2
11/10:00pm 12.4 12.1 10.1 86 1.2 WNW 2 6 1 3 1018.7 1018.7 0.2
11/09:30pm 13.0 12.3 10.2 83 1.4 WNW 4 4 2 2 1019.3 1019.3 0.2
11/09:00pm 13.5 13.0 10.7 83 1.5 NW 4 4 2 2 1019.5 1019.5 0.2
11/08:30pm 13.4 13.2 10.6 83 1.5 NW 2 6 1 3 1019.3 1019.3 0.2
11/08:00pm 13.7 12.7 10.3 80 1.8 ENE 6 6 3 3 1019.3 1019.3 0.2
11/07:30pm 14.8 13.2 11.6 81 1.7 E 11 13 6 7 1019.2 1019.2 0.2
11/07:00pm 14.9 12.9 11.5 80 1.8 E 13 15 7 8 1019.0 1019.0 0.2
11/06:30pm 14.9 12.8 11.3 79 1.9 ESE 13 17 7 9 1018.6 1018.6 0.2
11/06:00pm 14.5 12.7 10.7 78 2.0 ESE 11 17 6 9 1018.2 1018.2 0.2
11/05:30pm 14.5 12.5 10.3 76 2.2 SE 11 15 6 8 1018.2 1018.2 0.2
11/05:00pm 15.0 13.0 10.2 73 2.5 SE 11 13 6 7 1018.3 1018.3 0.2
11/04:30pm 15.4 13.4 10.0 70 2.8 SSE 11 13 6 7 1018.4 1018.4 0.2
11/04:00pm 16.2 14.4 9.4 64 3.5 SE 9 13 5 7 1018.3 1018.3 0.2
11/03:30pm 17.1 15.1 10.0 63 3.7 SSE 11 13 6 7 1018.3 1018.3 0.2
11/03:00pm 16.6 15.2 10.9 69 3.0 SSE 9 11 5 6 1018.6 1018.6 0.2
11/02:30pm 16.5 15.0 10.6 68 3.1 S 9 11 5 6 1018.4 1018.4 0.2
11/02:00pm 17.2 14.9 11.7 70 3.0 S 15 19 8 10 1018.3 1018.3 0.0
11/01:30pm 16.2 14.0 10.7 70 2.9 S 13 19 7 10 1018.5 1018.5 0.0
11/01:00pm 16.3 14.1 10.8 70 2.9 S 13 17 7 9 1019.1 1019.1 0.0
11/12:30pm 15.9 13.5 10.2 69 3.0 SSW 13 19 7 10 1019.8 1019.8 0.0
11/12:00pm 16.5 13.2 11.0 70 2.9 S 19 22 10 12 1020.2 1020.2 0.0
11/11:30am 16.0 13.9 11.0 72 2.7 SSW 13 19 7 10 1020.5 1020.5 0.0
11/11:00am 15.5 13.0 10.9 74 2.4 SSW 15 19 8 10 1020.9 1020.9 0.0
11/10:30am 15.1 12.0 10.3 73 2.5 SSW 17 26 9 14 1021.0 1021.0 0.0
11/10:00am 15.2 13.3 10.6 74 2.4 SSW 11 17 6 9 1021.0 1021.0 0.0
11/09:30am 14.5 12.5 10.1 75 2.3 SW 11 19 6 10 1021.1 1021.1 0.0
11/09:00am 13.3 11.1 9.4 77 2.0 WSW 11 20 6 11 1021.1 1021.1 3.8
11/08:30am 13.3 11.6 9.7 79 1.8 WSW 9 19 5 10 1021.0 1021.0 3.8
11/08:00am 13.1 9.9 10.1 82 1.5 SW 17 26 9 14 1020.9 1020.9 3.8
11/07:30am 13.3 9.7 9.9 80 1.7 SSW 19 28 10 15 1021.1 1021.1 3.8
11/07:00am 12.6 10.8 9.4 81 1.6 SW 9 17 5 9 1020.8 1020.8 3.8
11/06:30am 12.5 10.3 9.3 81 1.6 SW 11 20 6 11 1020.9 1020.9 3.8
11/06:00am 11.8 9.1 9.0 83 1.4 WSW 13 19 7 10 1020.6 1020.6 3.8
11/05:30am 11.6 9.3 9.0 84 1.3 WSW 11 17 6 9 1020.4 1020.4 3.8
11/05:00am 11.5 8.9 9.2 86 1.1 WSW 13 17 7 9 1020.2 1020.2 3.8
11/04:30am 11.2 9.1 9.6 90 0.8 WSW 11 19 6 10 1019.9 1019.9 3.8
11/04:00am 11.1 9.4 9.9 92 0.6 WSW 9 17 5 9 1019.8 1019.8 3.8
11/03:30am 11.1 9.0 9.9 92 0.6 WSW 11 17 6 9 1019.8 1019.8 3.8
11/03:00am 11.6 9.6 10.2 91 0.7 SW 11 19 6 10 1019.9 1019.9 3.8
11/02:30am 11.4 8.6 10.1 92 0.7 SW 15 24 8 13 1019.7 1019.7 3.8
11/02:00am 11.8 9.6 10.7 93 0.6 SW 13 22 7 12 1019.6 1019.6 3.8
11/01:30am 11.5 9.6 10.4 93 0.6 SW 11 19 6 10 1019.6 1019.6 3.8
11/01:00am 12.1 10.3 10.8 92 0.7 SW 11 19 6 10 1019.7 1019.7 3.8
11/12:30am 12.9 9.3 12.0 94 0.5 SSW 22 33 12 18 1019.6 1019.6 3.8
11/12:00am 12.4 9.3 11.5 94 0.5 SSW 19 30 10 16 1019.6 1019.6 3.8
 
Date/Time
EST
Temp
°C
App
Temp
°C
Dew
Point
°C
Rel
Hum
%
Delta-T
°C
Wind Press
QNH
hPa
Press
MSL
hPa
Rain since
9am
mm
Dir  Spd
km/h
Gust
km/h
Spd
kts
Gust
kts
10/11:30pm 12.0 9.4 10.6 91 0.7 SW 15 26 8 14 1019.7 1019.7 3.6
10/11:00pm 13.0 9.1 9.4 79 1.8 SW 20 50 11 27 1019.8 1019.8 3.2
10/10:30pm 14.5 8.3 10.1 75 2.3 S 33 44 18 24 1019.2 1019.2 3.2
10/10:00pm 13.8 5.0 11.0 83 1.5 S 48 57 26 31 1019.3 1019.3 3.2
10/09:30pm 14.4 6.8 9.2 71 2.7 S 39 48 21 26 1019.5 1019.5 3.2
10/09:00pm 14.5 7.3 9.3 71 2.7 SSW 37 48 20 26 1019.4 1019.4 3.2
10/08:30pm 14.5 5.6 9.3 71 2.7 S 46 56 25 30 1019.2 1019.2 3.2
10/08:00pm 14.6 4.4 10.2 75 2.3 S 54 65 29 35 1019.0 1019.0 3.2
10/07:30pm 14.3 6.1 10.5 78 2.0 S 44 56 24 30 1018.9 1018.9 3.2
10/07:00pm 14.2 5.4 10.8 80 1.8 S 48 69 26 37 1018.6 1018.6 3.2
10/06:30pm 14.0 4.5 9.8 76 2.2 S 50 72 27 39 1018.7 1018.7 3.0
10/06:17pm 14.0 4.4 9.4 74 2.4 S 50 70 27 38 1018.5 1018.5 3.0
10/06:13pm 14.4 4.4 9.2 71 2.7 S 52 70 28 38 1018.1 1018.1 3.0
10/06:00pm 14.2 6.7 9.4 73 2.5 S 39 65 21 35 1018.2 1018.2 3.0
10/05:37pm 14.0 4.7 10.6 80 1.8 S 50 70 27 38 1018.0 1018.0 3.0
10/05:30pm 14.1 2.9 9.7 75 2.3 S 59 70 32 38 1017.4 1017.4 3.0
10/05:00pm 14.9 5.1 10.1 73 2.5 S 52 65 28 35 1017.1 1017.1 3.0
10/04:30pm 13.8 5.6 11.7 87 1.1 S 46 59 25 32 1017.0 1017.0 3.0
10/04:06pm 13.4 5.8 12.3 93 0.6 S 44 65 24 35 1016.7 1016.7 2.6
10/04:00pm 13.2 3.6 12.1 93 0.6 S 54 78 29 42 1016.8 1016.8 2.6
10/03:55pm 12.9 0.7 11.8 93 0.6 S 67 83 36 45 1016.8 1016.8 2.6
10/03:47pm 13.3 2.8 12.2 93 0.6 S 59 83 32 45 1016.1 1016.0 2.6
10/03:30pm 13.0 3.7 11.7 92 0.7 S 52 74 28 40 1016.6 1016.6 2.4
10/03:15pm 14.7 4.2 11.1 79 1.9 S 57 76 31 41 1016.1 1016.0 0.4
10/03:00pm 14.1 3.3 11.3 83 1.5 S 59 72 32 39 1016.2 1016.1 0.4
10/02:35pm 13.8 4.6 11.0 83 1.5 SSW 50 69 27 37 1016.1 1016.0 0.4
10/02:30pm 14.6 5.6 11.6 82 1.6 SSW 50 65 27 35 1016.1 1016.0 0.4
10/02:08pm 14.4 5.9 12.1 86 1.2 S 48 69 26 37 1015.9 1015.8 0.4
10/02:00pm 14.1 3.8 11.8 86 1.2 S 57 69 31 37 1015.6 1015.5 0.2
10/01:34pm 14.6 4.2 11.2 80 1.8 S 57 76 31 41 1015.5 1015.4 0.2
10/01:30pm 14.5 3.5 10.7 78 2.0 S 59 76 32 41 1015.3 1015.2 0.2
10/01:28pm 14.8 4.3 11.0 78 2.0 S 57 76 31 41 1015.0 1014.9 0.2
10/01:00pm 14.4 3.6 11.4 82 1.6 SSE 59 74 32 40 1015.1 1015.0 0.2
10/12:30pm 15.4 4.2 9.7 69 3.0 S 59 74 32 40 1015.0 1014.9 0.2
10/12:00pm 15.9 4.3 9.6 66 3.3 S 61 74 33 40 1014.8 1014.7 0.2
10/11:32am 15.6 3.8 10.4 71 2.7 S 63 82 34 44 1014.3 1014.2 0.2
10/11:30am 15.5 4.1 10.5 72 2.6 S 61 80 33 43 1014.4 1014.3 0.2
10/11:00am 15.2 3.7 11.4 78 2.0 S 63 80 34 43 1014.7 1014.6 0.2
10/10:30am 15.7 3.8 11.5 76 2.3 S 65 82 35 44 1014.3 1014.2 0.2
10/10:00am 15.4 2.2 11.4 77 2.1 S 72 91 39 49 1013.3 1013.2 0.2
10/09:59am 15.5 2.4 11.7 78 2.1 S 72 91 39 49 1013.3 1013.2 0.2
10/09:30am 15.7 2.6 11.9 78 2.1 S 72 85 39 46 1013.1 1013.0 0.2
10/09:23am 15.5 3.4 12.1 80 1.9 S 67 85 36 46 1012.6 1012.5 0.2
10/09:00am 14.7 2.4 13.2 91 0.8 S 70 87 38 47 1012.2 1012.1 32.4
10/08:41am 14.6 2.8 14.6 100 0.0 S 70 89 38 48 1012.0 1011.9 32.4
10/08:30am 14.0 1.6 14.0 100 0.0 SSE 72 85 39 46 1011.9 1011.8 32.4
10/08:07am 13.9 2.8 13.9 100 0.0 SSE 65 89 35 48 1011.7 1011.6 29.8
10/08:00am 14.9 4.1 14.9 100 0.0 SSE 65 78 35 42 1011.7 1011.6 28.0
10/07:41am 14.1 5.1 14.1 100 0.0 SSE 54 72 29 39 1011.4 1011.3 27.8
10/07:30am 13.8 3.0 13.8 100 0.0 SSE 63 78 34 42 1011.3 1011.2 27.0
10/07:10am 13.5 2.6 13.5 100 0.0 SSE 63 96 34 52 1010.9 1010.8 25.0
10/07:05am 13.8 5.1 13.8 100 0.0 SSE 52 96 28 52 1010.8 1010.7 24.8
10/07:03am 14.3 7.3 14.3 100 0.0 SSE 44 96 24 52 1010.7 1010.6 23.4
10/07:00am 13.9 8.1 13.9 100 0.0 SSE 37 61 20 33 1010.5 1010.4 23.0
10/06:59am 13.9 8.5 13.9 100 0.0 SSE 35 59 19 32 1010.7 1010.6 23.0
10/06:42am 13.2 7.6 13.2 100 0.0 SSE 35 48 19 26 1011.2 1011.1 21.6
10/06:30am 13.6 4.9 13.6 100 0.0 S 52 65 28 35 1010.7 1010.6 20.4
10/06:06am 13.8 9.7 13.8 100 0.0 S 28 57 15 31 1010.3 1010.2 18.6
10/06:00am 13.6 10.9 13.6 100 0.0 SSW 20 35 11 19 1010.3 1010.2 18.0
10/05:30am 13.3 10.5 13.3 100 0.0 SSW 20 28 11 15 1010.0 1009.9 16.2
10/05:00am 11.7 10.1 11.7 100 0.0 SW 11 17 6 9 1009.7 1009.6 16.0
10/04:30am 10.9 9.9 10.9 100 0.0 WSW 7 11 4 6 1009.1 1009.1 15.8
10/04:00am 10.7 8.5 10.7 100 0.0 W 13 17 7 9 1008.5 1008.5 15.8
10/03:30am 10.6 8.7 10.6 100 0.0 W 11 15 6 8 1008.6 1008.6 15.8
10/03:00am 9.9 7.4 9.8 99 0.1 WSW 13 17 7 9 1009.0 1009.0 13.2
10/02:30am 9.6 7.0 9.5 99 0.0 W 13 17 7 9 1008.9 1008.9 10.6
10/02:00am 9.4 7.2 9.3 99 0.0 W 11 15 6 8 1009.2 1009.2 8.6
10/01:30am 9.5 8.0 9.2 98 0.1 W 7 13 4 7 1009.2 1009.2 8.4
10/01:00am 9.3 7.9 9.0 98 0.1 WNW 6 9 3 5 1009.2 1009.2 8.4
10/12:30am 9.5 8.5 9.0 97 0.2 NW 4 9 2 5 1009.0 1009.0 8.4
10/12:00am 9.6 8.3 9.1 97 0.2 NW 6 11 3 6 1008.6 1008.6 8.4
 
Date/Time
EST
Temp
°C
App
Temp
°C
Dew
Point
°C
Rel
Hum
%
Delta-T
°C
Wind Press
QNH
hPa
Press
MSL
hPa
Rain since
9am
mm
Dir  Spd
km/h
Gust
km/h
Spd
kts
Gust
kts
09/11:30pm 9.5 8.5 9.0 97 0.2 NNW 4 9 2 5 1008.9 1008.9 8.4
09/11:00pm 9.5 7.6 9.2 98 0.1 NNE 9 13 5 7 1008.6 1008.6 8.4

Latest Capital City Observations: Canberra | Sydney | Melbourne | Brisbane | Adelaide | Perth | Hobart | Darwin

Other formats

Comma delimited format used in spreadsheet applications
http://www.bom.gov.au/fwo/IDN60901/IDN60901.95770.axf

JavaScript Object Notation format (JSON) in row-major order
http://www.bom.gov.au/fwo/IDN60901/IDN60901.95770.json

Data quality

Most of these data are generated automatically and are frequently updated. Quality checks on data are not normally performed. It is possible for incorrect values to appear. Refer to information at About Latest Weather Observations and please check the disclaimer before using these data.